Details From VDPP - Phnom Penh Intl
To EGLL - London Heathrow
Flight Number -
Tags Generated
Created
Modified
Stats Distance 5,422 nm / 10,042 km
Max Altitude 0 ft / 0 m
Waypoints 14
Social Downloads 1
Likes 0
Share VATSIM

Download

Looking for another format? Having issues loading an existing format? Contact us
Advertisement - Login to hide

Notes

Generated

Route

VDPP HAPPY PSL35 OL US01 MASEN KRANI DULEB SOTET MAPEX IRKIS EH035 LON15 EGLL

ID Type Via Altitude Latitude Longitude Leg Dist Tot Dist Heading (true) Name
O VDPP APT - 0 ft / 0 m 11.53713˚ 104.83433˚ - 0 nm - -
HAPPY FIX - 0 ft / 0 m 14.64629˚ 102.24744˚ 240 nm 240 nm 321° / 321° -
PSL35 FIX - 0 ft / 0 m 17.18742˚ 100.25335˚ 191 nm 431 nm 323° / 323° -
OL NDB - 0 ft / 0 m 43.41667˚ 70.75000˚ 2173 nm 2605 nm 323° / 307° AKKOL NDB
US01 FIX - 0 ft / 0 m 51.81333˚ 46.39333˚ 1100 nm 3705 nm 306° / 288° -
MASEN FIX - 0 ft / 0 m 52.78167˚ 40.84167˚ 211 nm 3917 nm 288° / 284° -
KRANI FIX - 0 ft / 0 m 53.40500˚ 35.69000˚ 189 nm 4106 nm 283° / 279° -
DULEB FIX - 0 ft / 0 m 53.81833˚ 29.39167˚ 225 nm 4332 nm 279° / 274° -
SOTET FIX - 0 ft / 0 m 53.82972˚ 23.55306˚ 206 nm 4539 nm 273° / 268° -
MAPEX FIX - 0 ft / 0 m 53.70611˚ 17.00361˚ 232 nm 4771 nm 271° / 266° -
IRKIS FIX - 0 ft / 0 m 53.24889˚ 10.88861˚ 220 nm 4992 nm 265° / 260° -
EH035 FIX - 0 ft / 0 m 52.47639˚ 4.92833˚ 220 nm 5213 nm 260° / 256° -
LON15 FIX - 0 ft / 0 m 51.47764˚ -0.42927˚ 207 nm 5420 nm 255° / 251° -
O EGLL APT - 0 ft / 0 m 51.46477˚ -0.48695˚ 2 nm 5422 nm 250° / 250° -

Altitude Profile

Advertisement - Login to hide

Weather


0- 5 10 15 20 25 30 35+ Temperature / ° C

Clouds and Precipitation
Forecast for 2017-12-17 00:00 UTC. Updated an hour ago

Ground ~20,000 ft ~40,000 ft Winds

VDPP

Details ICAO VDPP (PNH)
Name Phnom Penh Intl
Region Cambodia
Timezone Asia/Phnom_Penh (UTC+7.0)
Stats Elevation 40 ft / 12 m (AMSL)
Location 11.546542° 104.844142°
Runways 1
Magnetic Variation 0.493° W

METAR

Not found

TAF

TAF VDPP 161100Z 1612/1706 04010KT 9999 FEW017= TAF VDSR 161100Z 1612/1706 02013KT 9999 FEW017

Decode

Departure Runways

ID Width Length Bearing (true) Bearing (mag) Surface Threshold Offset Overrun Length
05 144 ft / 44 m 9,815 ft / 2,992 m 45.61° 46.10° Asphalt 400 ft / 122 m 0 ft / 0 m
23 144 ft / 44 m 9,815 ft / 2,992 m 225.61° 226.10° Asphalt 492 ft / 150 m 0 ft / 0 m

EGLL

Details ICAO EGLL (LHR)
Name London Heathrow
Region United Kingdom
Timezone Europe/London (UTC+0.0)
Stats Elevation 83 ft / 25 m (AMSL)
Location 51.471218° -0.460978°
Runways 2
Magnetic Variation 0.559° W

METAR

EGLL 161950Z AUTO 28007KT 9999 SCT025 04/02 Q1021 NOSIG

Decode

TAF

TAF EGLL 161652Z 1618/1724 30006KT 9999 SCT030 BECMG 1621/1624 6000 TEMPO 1700/1711 3000 BR MIFG BKN003 PROB40 1701/1710 0300 FZFG FG VV/// TEMPO 1712/1714 RA BKN006 BECMG 1714/1717 -RADZ BKN006 PROB40 TEMPO 1717/1722 3000 RADZ BKN004 BECMG 1722/1724 9999 NSW FEW030

Decode

Destination Runways

ID Width Length Bearing (true) Bearing (mag) Surface Threshold Offset Overrun Length
09L 164 ft / 50 m 12,811 ft / 3,905 m 89.64° 90.20° Asphalt 1,004 ft / 306 m 0 ft / 0 m
09R 164 ft / 50 m 12,019 ft / 3,663 m 89.67° 90.23° Asphalt 1,007 ft / 307 m 0 ft / 0 m
27L 164 ft / 50 m 12,019 ft / 3,663 m 269.71° 270.27° Asphalt 0 ft / 0 m 69 ft / 21 m
27R 164 ft / 50 m 12,811 ft / 3,905 m 269.69° 270.25° Asphalt 0 ft / 0 m 69 ft / 21 m

Approach Navaids

Runway Type Ident Frequency Range Bearing (true) Bearing (mag) Slope Elevation
09L Localiser IAA 110.30 MHz 18 nm / 33 km 89.69° 90.25° - 83 ft / 25 m (AMSL)
09L Glidescope IAA 110.30 MHz 10 nm / 19 km 89.67° 90.22° 3.00° 51 ft / 16 m (AMSL)
09L DME IAA 110.30 MHz 18 nm / 33 km - - - 89 ft / 27 m (AMSL)
09R Localiser IBB 109.50 MHz 18 nm / 33 km 89.73° 90.29° - 83 ft / 25 m (AMSL)
09R Glidescope IBB 109.50 MHz 10 nm / 19 km 89.69° 90.25° 3.00° 52 ft / 16 m (AMSL)
09R DME IBB 109.50 MHz 18 nm / 33 km - - - 84 ft / 26 m (AMSL)
27L Localiser ILL 109.50 MHz 18 nm / 33 km 269.67° 270.23° - 83 ft / 25 m (AMSL)
27L Glidescope ILL 109.50 MHz 10 nm / 19 km 269.69° 270.25° 3.00° 56 ft / 17 m (AMSL)
27L DME ILL 109.50 MHz 18 nm / 33 km - - - 84 ft / 26 m (AMSL)
27R Localiser IRR 110.30 MHz 18 nm / 33 km 269.66° 270.22° - 83 ft / 25 m (AMSL)
27R Glidescope IRR 110.30 MHz 10 nm / 19 km 269.67° 270.22° 3.00° 60 ft / 18 m (AMSL)
27R DME IRR 110.30 MHz 18 nm / 33 km - - - 89 ft / 27 m (AMSL)